createdAt,value
2017-12-28T00:00:11.941Z,6.8
2017-12-28T00:15:04.428Z,6.8
2017-12-28T00:30:05.150Z,6.8
2017-12-28T00:45:06.168Z,6.8
2017-12-28T01:00:05.343Z,6.8
2017-12-28T01:15:05.776Z,6.8
2017-12-28T01:30:04.927Z,6.6
2017-12-28T01:45:05.633Z,6.6
2017-12-28T02:00:05.101Z,6.6
2017-12-28T02:15:05.216Z,6.5
2017-12-28T02:30:05.327Z,6.5
2017-12-28T02:45:04.527Z,6.3
2017-12-28T03:00:05.009Z,6.1
2017-12-28T03:15:08.349Z,6.1
2017-12-28T03:30:12.285Z,6
2017-12-28T03:45:04.343Z,6
2017-12-28T04:00:04.664Z,6.1
2017-12-28T04:15:07.819Z,5.9
2017-12-28T04:30:07.591Z,5.9
2017-12-28T04:45:04.629Z,5.5
2017-12-28T05:00:06.439Z,5.6
2017-12-28T05:15:07.612Z,5.5
2017-12-28T05:30:05.959Z,5.4
2017-12-28T05:45:04.879Z,5.4
2017-12-28T06:00:05.072Z,5.5
2017-12-28T06:15:04.601Z,5.6
2017-12-28T06:30:05.538Z,5.2
2017-12-28T06:45:06.285Z,5.1
2017-12-28T07:00:04.883Z,5
2017-12-28T07:15:04.716Z,5.2
2017-12-28T07:30:05.109Z,5
2017-12-28T07:45:07.952Z,4.9
2017-12-28T08:00:04.379Z,5
2017-12-28T08:15:04.452Z,4.9
2017-12-28T08:30:06.340Z,4.9
2017-12-28T08:45:04.788Z,4.9
2017-12-28T09:00:05.249Z,4.9
2017-12-28T09:15:08.686Z,5.1
2017-12-28T09:30:05.566Z,5.1
2017-12-28T09:45:15.654Z,5.1
2017-12-28T10:00:11.431Z,5.1
2017-12-28T10:15:04.785Z,5.5
2017-12-28T10:30:05.538Z,5.3
2017-12-28T10:45:05.081Z,5.7
2017-12-28T11:00:05.156Z,6
2017-12-28T11:15:05.166Z,6.1
2017-12-28T11:30:04.321Z,6.3
2017-12-28T11:45:07.487Z,6
2017-12-28T12:00:05.453Z,6.1
2017-12-28T12:15:04.944Z,6.2
2017-12-28T12:30:04.731Z,6.1
2017-12-28T12:45:04.820Z,5.9
2017-12-28T13:00:04.903Z,5.9
2017-12-28T13:15:04.984Z,5.8
2017-12-28T13:30:07.755Z,5.7
2017-12-28T13:45:04.622Z,5.6
2017-12-28T14:00:04.495Z,5.4
2017-12-28T14:15:07.909Z,5
2017-12-28T14:30:04.526Z,5
2017-12-28T14:45:04.660Z,5
2017-12-28T15:00:04.796Z,5
2017-12-28T15:15:05.457Z,4.8
2017-12-28T15:30:04.968Z,4.6
2017-12-28T15:45:05.064Z,4.9
2017-12-28T16:00:11.738Z,4.7
2017-12-28T16:15:04.327Z,4.9
2017-12-28T16:30:04.717Z,4.8
2017-12-28T16:45:04.829Z,5.2
2017-12-28T17:00:05.176Z,5.2
2017-12-28T17:15:05.559Z,5.3
2017-12-28T17:30:07.804Z,5.3
2017-12-28T17:45:04.290Z,5
2017-12-28T18:00:04.380Z,4.8
2017-12-28T18:15:04.771Z,4.3
2017-12-28T18:30:04.632Z,4
2017-12-28T18:45:04.975Z,4.2
2017-12-28T19:00:05.498Z,4.5
2017-12-28T19:15:11.296Z,4.5
2017-12-28T19:30:06.036Z,4.4
2017-12-28T19:45:04.476Z,4
2017-12-28T20:00:05.185Z,3.9
2017-12-28T20:15:04.900Z,4.1
2017-12-28T20:30:04.992Z,4.2
2017-12-28T20:45:05.120Z,4.2
2017-12-28T21:00:04.610Z,3.9
2017-12-28T21:30:07.959Z,3.6
2017-12-28T21:45:04.896Z,3.6
2017-12-28T22:15:04.725Z,3.9
2017-12-28T22:30:05.146Z,4
2017-12-28T22:45:05.274Z,4
2017-12-28T23:00:05.424Z,4.1
2017-12-28T23:15:04.851Z,4.1
2017-12-28T23:30:08.087Z,4.1
2017-12-28T23:45:05.022Z,4.1
